Time;durP1;ratioP1;P1;durP2;ratioP2;P2;SDS_P1;SDS_P2;PMS_P1;PMS_P2;Temp;Humidity;BMP_temperature;BMP_pressure;BME280_temperature;BME280_humidity;BME280_pressure;Samples;Min_cycle;Max_cycle;Signal;HPM_P1;HPM_P2
2023/11/01 00:01:02;;;;;;;4.95;1.42;;;;;;;16.07;74.55;100379.00;5052928;28;20045;-47
2023/11/01 00:03:27;;;;;;;5.65;1.60;;;;;;;16.10;74.33;100372.84;5051550;28;20386;-48
2023/11/01 00:05:53;;;;;;;5.97;1.50;;;;;;;16.10;74.37;100363.16;5048961;28;20081;-44
2023/11/01 00:08:18;;;;;;;7.10;1.58;;;;;;;15.93;75.37;100367.84;5050179;28;20041;-47
2023/11/01 00:10:43;;;;;;;5.55;1.80;;;;;;;15.98;74.91;100373.88;5049677;28;20480;-48
2023/11/01 00:13:09;;;;;;;5.90;1.50;;;;;;;15.98;74.96;100365.16;5050703;28;20129;-43
2023/11/01 00:15:34;;;;;;;5.70;1.48;;;;;;;16.04;74.39;100352.75;5050223;28;20033;-44
2023/11/01 00:17:59;;;;;;;8.45;1.63;;;;;;;15.87;75.00;100357.44;5050267;28;20506;-46
2023/11/01 00:20:25;;;;;;;5.82;1.73;;;;;;;15.83;75.55;100356.63;5050685;28;20507;-47
2023/11/01 00:22:50;;;;;;;6.35;1.60;;;;;;;15.88;75.31;100348.66;5049194;28;20057;-45
2023/11/01 00:25:15;;;;;;;4.70;1.65;;;;;;;16.08;74.31;100343.94;5050585;28;20067;-44
2023/11/01 00:27:41;;;;;;;6.30;2.03;;;;;;;15.95;74.75;100345.03;5050672;28;20059;-47
2023/11/01 00:30:07;;;;;;;9.68;1.90;;;;;;;15.81;75.16;100347.00;5049874;28;20521;-47
2023/11/01 00:32:32;;;;;;;10.85;2.30;;;;;;;15.91;75.25;100342.50;5050488;28;20025;-44
2023/11/01 00:34:57;;;;;;;6.75;2.20;;;;;;;15.98;74.81;100344.13;5049681;28;20074;-45
2023/11/01 00:37:23;;;;;;;7.03;2.20;;;;;;;15.87;75.03;100343.41;5049254;28;20121;-47
2023/11/01 00:39:48;;;;;;;9.57;2.50;;;;;;;15.87;75.36;100339.03;5047414;28;20041;-48
2023/11/01 00:42:14;;;;;;;8.18;2.10;;;;;;;15.86;75.46;100333.81;5049155;28;20032;-45
2023/11/01 00:44:39;;;;;;;8.02;2.42;;;;;;;15.87;75.99;100346.03;5050352;28;20061;-48
2023/11/01 00:47:05;;;;;;;7.93;2.50;;;;;;;15.97;75.37;100347.66;5052465;28;20117;-45
2023/11/01 00:49:30;;;;;;;10.63;2.80;;;;;;;16.09;74.85;100342.19;5052985;28;20033;-47
2023/11/01 00:51:55;;;;;;;10.95;3.33;;;;;;;15.83;75.51;100339.97;5052248;28;20033;-47
2023/11/01 00:54:20;;;;;;;7.95;3.70;;;;;;;15.89;75.65;100341.63;5053145;28;20037;-44
2023/11/01 00:56:46;;;;;;;10.68;4.30;;;;;;;15.77;76.08;100334.81;5052105;28;20057;-45
2023/11/01 00:59:11;;;;;;;10.77;4.38;;;;;;;15.85;76.13;100325.06;5052913;28;20051;-46
2023/11/01 01:01:37;;;;;;;11.15;4.70;;;;;;;15.90;75.87;100327.59;5051943;28;20078;-44
2023/11/01 01:04:02;;;;;;;12.93;4.97;;;;;;;15.74;76.49;100325.22;5052249;28;20442;-45
2023/11/01 01:06:27;;;;;;;10.85;4.88;;;;;;;15.96;75.22;100319.63;5056328;28;20056;-45
2023/11/01 01:08:53;;;;;;;11.80;5.22;;;;;;;15.71;76.19;100316.53;5057136;28;20514;-45
2023/11/01 01:11:19;;;;;;;10.98;4.93;;;;;;;15.88;75.50;100313.63;5057635;28;20037;-47
2023/11/01 01:13:45;;;;;;;11.55;4.93;;;;;;;15.88;75.57;100311.84;5057182;28;20099;-45
2023/11/01 01:16:10;;;;;;;14.73;4.70;;;;;;;15.84;75.95;100310.19;5051896;28;20442;-47
2023/11/01 01:18:36;;;;;;;13.18;4.80;;;;;;;15.82;76.16;100297.06;5052618;28;20108;-43
2023/11/01 01:21:01;;;;;;;13.40;5.07;;;;;;;15.71;76.81;100290.25;5051834;28;20064;-45
2023/11/01 01:23:27;;;;;;;11.15;4.72;;;;;;;15.88;75.54;100288.19;5052541;28;20522;-49
2023/11/01 01:25:52;;;;;;;10.23;4.60;;;;;;;15.98;75.39;100281.88;5051853;28;20036;-46
2023/11/01 01:28:17;;;;;;;11.13;4.50;;;;;;;16.00;75.12;100279.22;5052591;28;20041;-44
2023/11/01 01:30:42;;;;;;;10.90;4.95;;;;;;;15.82;75.47;100285.69;5052122;28;20033;-46
2023/11/01 01:33:08;;;;;;;12.52;4.90;;;;;;;15.76;76.36;100273.50;5051667;28;20033;-45
2023/11/01 01:35:33;;;;;;;11.20;4.97;;;;;;;15.74;76.36;100288.44;5051469;28;20033;-44
2023/11/01 01:37:58;;;;;;;12.57;5.35;;;;;;;15.77;75.96;100275.25;5051360;28;20028;-46
2023/11/01 01:40:24;;;;;;;11.38;5.55;;;;;;;15.78;76.01;100278.75;5051772;28;20029;-47
2023/11/01 01:42:49;;;;;;;11.23;5.32;;;;;;;15.92;75.59;100273.25;5051620;28;20487;-43
2023/11/01 01:45:14;;;;;;;9.75;4.85;;;;;;;15.95;75.42;100270.56;5052438;28;20556;-43
2023/11/01 01:47:40;;;;;;;13.10;4.82;;;;;;;16.04;74.94;100258.09;5051405;28;20495;-44
2023/11/01 01:50:07;;;;;;;9.07;4.97;;;;;;;15.96;75.09;100262.66;5051349;28;20033;-45
2023/11/01 01:52:32;;;;;;;13.30;4.80;;;;;;;15.92;75.07;100260.09;5051956;28;20090;-44
2023/11/01 01:54:58;;;;;;;10.23;4.72;;;;;;;15.66;74.83;100252.69;5051127;28;20029;-43
2023/11/01 01:57:24;;;;;;;9.73;4.90;;;;;;;15.87;74.50;100244.41;5051994;28;20410;-45
2023/11/01 01:59:52;;;;;;;13.77;4.93;;;;;;;15.74;75.13;100241.13;5051454;28;20037;-46
2023/11/01 02:02:19;;;;;;;11.20;5.18;;;;;;;15.84;74.83;100236.59;5051697;28;20087;-46
2023/11/01 02:04:44;;;;;;;27.10;7.30;;;;;;;15.83;74.86;100232.22;5051375;28;20469;-48
2023/11/01 02:07:10;;;;;;;20.75;6.43;;;;;;;15.88;74.89;100229.50;5051565;28;20086;-43
2023/11/01 02:09:35;;;;;;;17.35;5.60;;;;;;;15.80;75.08;100227.88;5051836;28;20546;-47
2023/11/01 02:12:01;;;;;;;14.10;4.68;;;;;;;15.85;75.06;100219.94;5050120;28;20467;-48
2023/11/01 02:14:26;;;;;;;10.35;4.30;;;;;;;15.76;75.15;100226.19;5051910;28;20419;-44
2023/11/01 02:16:52;;;;;;;8.70;4.07;;;;;;;15.79;74.98;100215.66;5051020;28;20108;-44
2023/11/01 02:19:21;;;;;;;10.65;3.88;;;;;;;15.78;75.04;100219.16;5051381;28;20380;-48
2023/11/01 02:21:48;;;;;;;10.63;4.00;;;;;;;15.71;75.11;100214.91;5050608;28;20574;-45
2023/11/01 02:24:13;;;;;;;11.68;4.13;;;;;;;15.73;75.58;100212.25;5051355;28;20184;-46
2023/11/01 02:26:39;;;;;;;9.75;4.00;;;;;;;15.76;75.28;100206.94;5050813;28;20068;-43
2023/11/01 02:29:05;;;;;;;9.95;3.90;;;;;;;15.71;75.22;100206.16;5051119;28;20394;-45
2023/11/01 02:31:30;;;;;;;8.65;4.13;;;;;;;15.78;75.03;100202.53;5051719;28;20055;-46
2023/11/01 02:33:55;;;;;;;8.70;3.63;;;;;;;15.62;75.76;100199.28;5051264;28;20033;-45
2023/11/01 02:36:21;;;;;;;8.95;3.67;;;;;;;15.61;75.28;100194.97;5051301;28;20021;-44
2023/11/01 02:38:46;;;;;;;7.85;3.13;;;;;;;15.67;75.35;100189.59;5051496;28;20079;-45
2023/11/01 02:41:14;;;;;;;7.18;3.17;;;;;;;15.71;75.44;100182.50;5052103;28;20051;-47
2023/11/01 02:43:39;;;;;;;7.50;3.17;;;;;;;15.61;75.31;100178.31;5050893;28;20067;-43
2023/11/01 02:46:04;;;;;;;6.82;3.10;;;;;;;15.89;74.80;100182.16;5052065;28;20033;-45
2023/11/01 02:48:29;;;;;;;7.85;3.00;;;;;;;15.69;75.15;100179.91;5051131;28;20067;-43
2023/11/01 02:50:55;;;;;;;8.80;3.03;;;;;;;15.70;75.29;100176.38;5050717;28;20068;-45
2023/11/01 02:53:20;;;;;;;8.90;2.90;;;;;;;15.72;75.46;100171.09;5050954;28;20032;-45
2023/11/01 02:55:45;;;;;;;7.28;2.80;;;;;;;15.80;75.25;100166.56;5050125;28;20082;-44
2023/11/01 02:58:11;;;;;;;7.13;3.05;;;;;;;15.88;74.09;100169.03;5051110;28;20029;-47
2023/11/01 03:00:36;;;;;;;7.55;3.40;;;;;;;15.79;75.28;100170.97;5050483;28;20541;-44
2023/11/01 03:03:02;;;;;;;10.10;4.10;;;;;;;15.69;75.30;100161.50;5050229;28;20047;-44
2023/11/01 03:05:28;;;;;;;13.75;4.85;;;;;;;15.70;75.67;100165.88;5050965;28;20112;-46
2023/11/01 03:07:54;;;;;;;10.10;4.72;;;;;;;15.80;75.13;100167.41;5049541;28;20047;-45
2023/11/01 03:10:19;;;;;;;15.45;5.47;;;;;;;15.93;74.76;100168.06;5050922;28;20611;-45
2023/11/01 03:12:45;;;;;;;23.05;7.28;;;;;;;15.80;74.91;100158.66;5050471;28;20043;-44
2023/11/01 03:15:11;;;;;;;20.20;7.30;;;;;;;15.74;75.25;100162.28;5050379;28;20055;-44
2023/11/01 03:17:37;;;;;;;14.95;6.97;;;;;;;15.79;74.91;100156.97;5050613;28;20048;-43
2023/11/01 03:20:07;;;;;;;12.93;6.40;;;;;;;15.69;75.29;100153.63;5050616;28;20041;-44
2023/11/01 03:22:33;;;;;;;14.20;6.18;;;;;;;15.85;74.93;100154.22;5050969;28;20502;-45
2023/11/01 03:24:58;;;;;;;13.15;6.65;;;;;;;15.86;74.81;100145.41;5050375;28;20055;-46
2023/11/01 03:27:23;;;;;;;14.65;6.55;;;;;;;15.94;75.13;100150.50;5051011;28;20044;-44
2023/11/01 03:29:51;;;;;;;13.52;7.13;;;;;;;15.95;74.53;100132.09;5050644;28;20403;-44
2023/11/01 03:32:16;;;;;;;13.98;7.53;;;;;;;15.82;74.67;100139.34;5051274;28;20032;-45
2023/11/01 03:34:41;;;;;;;13.90;7.50;;;;;;;15.98;74.28;100131.19;5049836;28;20052;-46
2023/11/01 03:37:07;;;;;;;12.82;8.10;;;;;;;15.78;75.16;100131.56;5050275;28;20027;-48
2023/11/01 03:39:32;;;;;;;13.63;8.13;;;;;;;15.83;74.69;100122.69;5049410;28;20059;-45
2023/11/01 03:41:58;;;;;;;13.90;7.80;;;;;;;16.02;74.48;100123.19;5049621;28;20086;-46
2023/11/01 03:44:23;;;;;;;13.95;7.75;;;;;;;16.06;74.60;100127.47;5050051;28;20518;-47
2023/11/01 03:46:48;;;;;;;13.98;7.78;;;;;;;15.94;74.88;100118.97;5049175;28;20110;-45
2023/11/01 03:49:14;;;;;;;13.10;7.40;;;;;;;16.02;74.49;100120.56;5049938;28;20056;-43
2023/11/01 03:51:39;;;;;;;10.90;7.20;;;;;;;16.11;74.13;100124.75;5049566;28;20029;-47
2023/11/01 03:54:04;;;;;;;13.10;6.97;;;;;;;16.03;74.37;100117.03;5049233;28;20289;-46
2023/11/01 03:56:30;;;;;;;10.95;6.40;;;;;;;15.92;74.72;100119.00;5050030;28;20035;-45
2023/11/01 03:58:55;;;;;;;12.15;6.53;;;;;;;16.06;74.20;100116.09;5050541;28;20032;-50
2023/11/01 04:01:21;;;;;;;10.23;6.47;;;;;;;16.04;74.31;100108.22;5050398;28;20134;-44
2023/11/01 04:03:47;;;;;;;10.48;6.07;;;;;;;16.09;74.31;100105.53;5049883;28;20025;-43
2023/11/01 04:06:12;;;;;;;9.18;5.97;;;;;;;16.11;74.19;100106.34;5048693;28;20029;-44
2023/11/01 04:08:38;;;;;;;9.73;6.25;;;;;;;16.13;74.12;100110.69;5049748;28;20071;-44
2023/11/01 04:11:04;;;;;;;10.93;5.80;;;;;;;15.98;74.91;100104.88;5049460;28;20036;-47
2023/11/01 04:13:31;;;;;;;10.02;5.50;;;;;;;16.13;74.03;100105.41;5049493;28;20518;-45
2023/11/01 04:15:57;;;;;;;9.13;5.47;;;;;;;16.13;74.35;100102.78;5049113;28;20060;-48
2023/11/01 04:18:23;;;;;;;9.07;5.57;;;;;;;16.10;74.47;100097.56;5050483;28;20078;-46
2023/11/01 04:20:48;;;;;;;9.65;5.50;;;;;;;16.07;74.63;100092.41;5052929;28;20036;-48
2023/11/01 04:23:13;;;;;;;7.35;4.70;;;;;;;16.18;74.39;100093.03;5053661;28;20025;-47
2023/11/01 04:25:39;;;;;;;7.85;5.30;;;;;;;15.88;75.58;100088.41;5053259;28;20053;-46
2023/11/01 04:28:06;;;;;;;8.75;5.20;;;;;;;16.04;75.44;100094.25;5052828;28;20055;-46
2023/11/01 04:30:38;;;;;;;8.18;5.43;;;;;;;15.89;75.83;100095.41;5052230;28;20033;-44
2023/11/01 04:33:06;;;;;;;8.82;5.38;;;;;;;16.14;75.42;100085.25;5053358;28;20119;-46
2023/11/01 04:35:32;;;;;;;9.02;5.55;;;;;;;16.19;74.72;100092.13;5053548;28;20139;-46
2023/11/01 04:37:57;;;;;;;8.23;5.80;;;;;;;16.18;74.93;100082.50;5052696;28;20457;-44
2023/11/01 04:40:23;;;;;;;10.45;6.03;;;;;;;16.03;75.93;100090.75;5053390;28;20127;-47
2023/11/01 04:42:48;;;;;;;9.63;6.07;;;;;;;15.95;76.30;100087.41;5052698;28;20656;-46
2023/11/01 04:45:13;;;;;;;10.27;6.20;;;;;;;16.18;75.78;100084.28;5053441;28;20519;-48
2023/11/01 04:47:41;;;;;;;10.00;6.53;;;;;;;16.11;76.53;100093.19;5053245;28;20048;-45
2023/11/01 04:50:09;;;;;;;13.25;6.80;;;;;;;16.21;75.81;100081.59;5052399;28;20323;-46
2023/11/01 04:52:36;;;;;;;11.32;6.85;;;;;;;16.14;76.01;100074.72;5051370;28;20033;-47
2023/11/01 04:55:02;;;;;;;10.82;6.95;;;;;;;16.23;76.09;100075.38;5052886;28;20448;-46
2023/11/01 04:57:27;;;;;;;11.27;6.70;;;;;;;16.19;76.33;100078.97;5052876;28;20029;-44
2023/11/01 04:59:52;;;;;;;12.13;6.47;;;;;;;16.32;75.90;100073.44;5052703;28;20501;-46
2023/11/01 05:02:18;;;;;;;12.40;7.60;;;;;;;16.09;76.77;100069.56;5052877;28;20093;-44
2023/11/01 05:04:43;;;;;;;10.85;6.70;;;;;;;16.41;75.78;100067.97;5052922;28;20067;-46
2023/11/01 05:07:08;;;;;;;10.55;6.57;;;;;;;16.45;75.67;100065.25;5052550;28;20099;-45
2023/11/01 05:09:34;;;;;;;10.63;6.07;;;;;;;16.42;76.02;100061.81;5052603;28;20377;-45
2023/11/01 05:11:59;;;;;;;8.68;5.50;;;;;;;16.39;76.22;100061.88;5051966;28;20094;-47
2023/11/01 05:14:24;;;;;;;8.95;5.50;;;;;;;16.41;76.21;100050.41;5052959;28;20032;-43
2023/11/01 05:16:49;;;;;;;8.07;4.95;;;;;;;16.24;77.44;100048.19;5050316;28;20059;-43
2023/11/01 05:19:16;;;;;;;7.85;4.68;;;;;;;16.33;77.79;100043.63;5052972;28;20079;-46
2023/11/01 05:21:42;;;;;;;8.05;4.78;;;;;;;16.59;76.75;100051.75;5052971;28;20128;-48
2023/11/01 05:24:08;;;;;;;9.23;4.72;;;;;;;16.31;78.15;100040.16;5052750;28;20128;-46
2023/11/01 05:26:34;;;;;;;10.00;4.57;;;;;;;16.32;78.62;100042.75;5052554;28;20719;-44
2023/11/01 05:29:01;;;;;;;8.18;4.60;;;;;;;16.55;77.76;100037.81;5052118;28;20110;-44
2023/11/01 05:31:26;;;;;;;7.65;4.35;;;;;;;16.56;77.67;100043.94;5051833;28;20502;-46
2023/11/01 05:33:53;;;;;;;10.60;4.72;;;;;;;16.32;78.80;100032.22;5051806;28;20119;-47
2023/11/01 05:36:18;;;;;;;10.30;4.90;;;;;;;16.29;78.82;100032.28;5052192;28;20033;-46
2023/11/01 05:38:44;;;;;;;10.77;5.00;;;;;;;16.31;79.52;100035.75;5051679;28;20033;-47
2023/11/01 05:41:09;;;;;;;12.13;4.65;;;;;;;16.65;78.30;100035.84;5052418;28;20112;-43
2023/11/01 05:43:38;;;;;;;9.20;5.20;;;;;;;16.53;78.50;100029.06;5052100;28;20032;-47
2023/11/01 05:46:05;;;;;;;12.30;5.35;;;;;;;16.61;78.46;100032.44;5052267;28;20170;-44
2023/11/01 05:48:31;;;;;;;13.70;5.78;;;;;;;16.68;78.29;100032.28;5051724;28;20036;-47
2023/11/01 05:50:58;;;;;;;16.70;6.00;;;;;;;16.48;78.67;100030.09;5050723;28;20569;-46
2023/11/01 05:53:24;;;;;;;15.30;5.88;;;;;;;16.58;78.58;100027.22;5052249;28;20029;-44
2023/11/01 05:55:49;;;;;;;16.05;5.80;;;;;;;16.48;78.77;100028.31;5051790;28;20037;-47
2023/11/01 05:58:14;;;;;;;14.50;6.03;;;;;;;16.76;77.74;100028.56;5051977;28;20029;-44
2023/11/01 06:00:39;;;;;;;12.63;5.60;;;;;;;16.69;77.50;100019.09;5052528;28;20025;-44
2023/11/01 06:03:08;;;;;;;19.08;5.97;;;;;;;16.60;77.86;100017.53;5051195;28;20381;-46
2023/11/01 06:05:35;;;;;;;12.82;5.25;;;;;;;16.72;77.66;100024.25;5052367;28;20025;-46
2023/11/01 06:08:01;;;;;;;14.75;5.38;;;;;;;16.86;77.00;100024.78;5050130;28;20124;-44
2023/11/01 06:10:26;;;;;;;14.52;4.72;;;;;;;16.62;77.63;100021.00;5052506;28;20052;-43
2023/11/01 06:12:52;;;;;;;15.93;5.10;;;;;;;16.43;78.53;100019.69;5051488;28;20033;-45
2023/11/01 06:15:17;;;;;;;13.00;4.10;;;;;;;16.73;77.72;100023.34;5052412;28;20053;-47
2023/11/01 06:17:43;;;;;;;16.15;4.07;;;;;;;16.80;77.07;100024.06;5054841;28;20075;-43
2023/11/01 06:20:08;;;;;;;9.75;3.50;;;;;;;16.84;76.92;100023.94;5053762;28;20029;-44
2023/11/01 06:22:34;;;;;;;9.70;3.40;;;;;;;16.82;76.46;100024.91;5054239;28;20057;-44
2023/11/01 06:25:00;;;;;;;11.13;3.40;;;;;;;16.66;77.21;100020.91;5053367;28;20056;-44
2023/11/01 06:27:26;;;;;;;12.57;3.30;;;;;;;16.82;76.56;100025.78;5058169;22;20034;-46
2023/11/01 06:29:52;;;;;;;13.60;3.28;;;;;;;16.76;76.66;100019.78;5030526;28;20029;-45
2023/11/01 06:32:17;;;;;;;14.90;3.53;;;;;;;16.79;76.54;100017.94;5031008;28;20140;-45
2023/11/01 06:34:43;;;;;;;11.30;3.33;;;;;;;16.34;78.09;100019.91;5030644;28;20044;-46
2023/11/01 06:37:08;;;;;;;14.48;3.20;;;;;;;16.39;78.72;100027.69;5030260;28;20061;-51
2023/11/01 06:39:33;;;;;;;9.15;3.25;;;;;;;16.49;77.66;100009.00;5030851;28;20034;-48
2023/11/01 06:41:59;;;;;;;11.90;3.38;;;;;;;16.38;78.42;100008.41;5029211;28;20679;-48
2023/11/01 06:44:25;;;;;;;13.02;3.30;;;;;;;16.01;78.82;100003.13;5030773;28;20033;-45
2023/11/01 06:46:50;;;;;;;12.35;2.97;;;;;;;16.53;77.98;100007.16;5030498;28;20029;-46
2023/11/01 06:49:16;;;;;;;9.25;3.10;;;;;;;16.74;76.54;100011.94;5031209;28;20037;-46
2023/11/01 06:51:41;;;;;;;14.70;3.65;;;;;;;16.56;77.46;100012.34;5030783;28;20557;-51
2023/11/01 06:54:07;;;;;;;11.10;3.20;;;;;;;16.66;77.27;100019.16;5030532;28;20037;-47
2023/11/01 06:56:32;;;;;;;13.77;3.08;;;;;;;16.57;77.00;100004.44;5030905;28;20051;-47
2023/11/01 06:58:57;;;;;;;11.10;2.83;;;;;;;16.44;77.94;100000.38;5030620;28;20030;-53
2023/11/01 07:01:23;;;;;;;13.30;2.90;;;;;;;16.72;76.65;100002.34;5030854;28;20025;-44
2023/11/01 07:03:55;;;;;;;12.02;3.00;;;;;;;16.78;76.27;100003.03;5030471;28;20768;-45
2023/11/01 07:06:20;;;;;;;13.55;3.03;;;;;;;16.73;76.11;100009.31;5026860;28;20120;-44
2023/11/01 07:08:46;;;;;;;10.65;3.10;;;;;;;16.85;76.00;100009.88;5026517;28;20115;-49
2023/11/01 07:11:12;;;;;;;13.80;3.40;;;;;;;16.78;76.12;100013.56;5027866;28;20132;-45
2023/11/01 07:13:37;;;;;;;11.90;3.20;;;;;;;16.77;75.60;100003.94;5030292;28;20446;-48
2023/11/01 07:16:04;;;;;;;10.57;3.30;;;;;;;16.54;76.39;100007.13;5029606;28;20042;-49
2023/11/01 07:18:29;;;;;;;12.70;3.05;;;;;;;16.78;76.21;100007.44;5026889;28;20172;-47
2023/11/01 07:20:55;;;;;;;10.02;2.88;;;;;;;16.54;75.64;100003.63;5026496;28;20030;-45
2023/11/01 07:23:20;;;;;;;13.30;3.00;;;;;;;16.60;76.96;100003.50;5026565;28;20124;-43
2023/11/01 07:25:45;;;;;;;10.65;2.97;;;;;;;16.83;75.94;100014.31;5026185;28;20068;-47
2023/11/01 07:28:10;;;;;;;9.30;2.67;;;;;;;16.73;75.96;100012.81;5026698;28;20041;-44
2023/11/01 07:30:36;;;;;;;14.75;3.15;;;;;;;16.82;75.67;100014.38;5026828;28;20049;-45
2023/11/01 07:33:01;;;;;;;10.80;2.63;;;;;;;16.88;75.67;100004.56;5026204;28;20409;-47
2023/11/01 07:35:27;;;;;;;10.98;2.65;;;;;;;16.89;75.57;100008.91;5026129;28;20106;-50
2023/11/01 07:37:52;;;;;;;9.02;2.42;;;;;;;16.89;75.69;100008.06;5025791;28;20565;-44
2023/11/01 07:40:17;;;;;;;12.63;2.60;;;;;;;16.91;75.31;100012.34;5026411;28;20083;-47
2023/11/01 07:42:45;;;;;;;12.93;2.63;;;;;;;16.70;75.44;100006.78;5026350;28;20041;-44
2023/11/01 07:45:10;;;;;;;13.35;2.70;;;;;;;16.93;75.37;100001.78;5046143;28;20049;-45
2023/11/01 07:47:36;;;;;;;14.02;2.50;;;;;;;17.17;74.43;99998.50;5046076;28;20032;-48
2023/11/01 07:50:04;;;;;;;9.27;2.60;;;;;;;16.87;75.45;100000.19;5045472;28;20072;-45
2023/11/01 07:52:29;;;;;;;13.35;2.85;;;;;;;17.07;74.23;99999.66;5046020;28;20037;-47
2023/11/01 07:54:54;;;;;;;11.30;2.80;;;;;;;17.04;74.85;99997.97;5045442;28;20561;-46
2023/11/01 07:57:20;;;;;;;12.88;2.92;;;;;;;16.92;74.93;99992.16;5046065;28;20041;-50
2023/11/01 07:59:45;;;;;;;9.07;2.60;;;;;;;17.01;74.61;99992.81;5045557;28;20069;-46
2023/11/01 08:02:10;;;;;;;10.10;2.50;;;;;;;17.24;73.88;99979.00;5045676;28;20132;-46
2023/11/01 08:04:36;;;;;;;8.27;2.40;;;;;;;17.32;73.55;99981.41;5045674;28;20041;-51
2023/11/01 08:07:01;;;;;;;14.98;2.53;;;;;;;16.98;74.26;99982.34;5044994;28;20041;-46
2023/11/01 08:09:27;;;;;;;10.35;2.60;;;;;;;17.18;73.78;99984.44;5045796;28;20029;-46
2023/11/01 08:11:52;;;;;;;13.93;2.50;;;;;;;17.27;73.16;99981.53;5045134;28;20120;-43
2023/11/01 08:14:17;;;;;;;9.35;2.10;;;;;;;17.26;72.81;99974.53;5037855;28;20117;-46
2023/11/01 08:16:47;;;;;;;10.30;2.33;;;;;;;17.23;73.44;99979.91;5032080;28;20033;-48
2023/11/01 08:19:12;;;;;;;11.63;2.40;;;;;;;17.27;72.95;99978.88;5031998;28;20029;-46
2023/11/01 08:21:38;;;;;;;8.43;2.20;;;;;;;17.41;72.79;99981.13;5032178;28;20491;-45
2023/11/01 08:24:04;;;;;;;7.95;2.10;;;;;;;17.28;73.08;99970.09;5031717;28;20103;-49
2023/11/01 08:26:29;;;;;;;13.70;2.15;;;;;;;17.24;73.35;99967.59;5031780;28;20471;-47
2023/11/01 08:28:54;;;;;;;10.55;2.38;;;;;;;17.27;72.87;99964.84;5031501;28;20491;-44
2023/11/01 08:31:21;;;;;;;7.03;2.08;;;;;;;17.34;72.85;99963.78;5031888;28;20407;-47
2023/11/01 08:33:46;;;;;;;11.57;2.42;;;;;;;17.59;72.48;99964.78;5031236;28;20034;-48
2023/11/01 08:36:11;;;;;;;7.55;2.13;;;;;;;17.59;72.54;99956.88;5031707;28;20387;-46
2023/11/01 08:38:37;;;;;;;10.75;2.30;;;;;;;17.58;72.32;99955.16;5031860;28;20079;-46
2023/11/01 08:41:02;;;;;;;10.18;2.28;;;;;;;17.76;71.66;99948.50;5031789;28;20057;-48
2023/11/01 08:43:27;;;;;;;8.75;2.10;;;;;;;17.99;70.99;99955.72;5031530;28;20034;-44
2023/11/01 08:45:53;;;;;;;8.85;2.33;;;;;;;17.85;70.80;99945.59;5031216;28;20393;-44
2023/11/01 08:48:18;;;;;;;8.13;2.40;;;;;;;17.73;70.51;99951.25;5031732;28;20112;-50
2023/11/01 08:50:43;;;;;;;9.32;2.17;;;;;;;17.84;70.64;99943.84;5031353;28;20041;-47
2023/11/01 08:53:09;;;;;;;10.00;2.00;;;;;;;17.84;70.18;99938.59;5031752;28;20107;-46
2023/11/01 08:55:35;;;;;;;10.57;2.30;;;;;;;17.90;70.48;99943.66;5031715;28;20510;-48
2023/11/01 08:58:01;;;;;;;7.13;2.00;;;;;;;17.78;70.64;99937.00;5031198;28;20622;-47
2023/11/01 09:00:26;;;;;;;7.93;2.15;;;;;;;17.69;70.25;99937.28;5032068;28;20120;-45
2023/11/01 09:02:52;;;;;;;7.70;1.90;;;;;;;17.99;69.64;99945.16;5031090;28;20061;-45
2023/11/01 09:05:18;;;;;;;8.98;2.30;;;;;;;18.12;69.02;99942.06;5031985;28;20041;-45
2023/11/01 09:07:44;;;;;;;9.50;2.20;;;;;;;18.11;68.94;99927.16;5031432;28;20051;-47
2023/11/01 09:10:09;;;;;;;8.05;2.00;;;;;;;18.13;68.31;99930.59;5030601;28;20037;-50
2023/11/01 09:12:35;;;;;;;9.90;2.30;;;;;;;17.84;69.14;99930.69;5031927;28;20055;-46
2023/11/01 09:15:00;;;;;;;11.30;1.83;;;;;;;18.17;69.00;99932.25;5031247;28;20133;-44
2023/11/01 09:17:25;;;;;;;10.20;1.90;;;;;;;17.79;70.00;99936.09;5032363;28;20114;-47
2023/11/01 09:19:51;;;;;;;9.65;2.10;;;;;;;17.75;69.88;99936.22;5033421;28;20044;-49
2023/11/01 09:22:16;;;;;;;10.15;1.92;;;;;;;17.90;69.02;99927.84;5033638;28;20033;-49
2023/11/01 09:24:42;;;;;;;8.15;2.00;;;;;;;18.09;68.84;99923.72;5031859;28;20034;-49
2023/11/01 09:27:08;;;;;;;11.60;2.00;;;;;;;18.35;67.92;99933.41;5030670;28;20397;-43
2023/11/01 09:29:33;;;;;;;10.07;2.22;;;;;;;18.36;67.46;99929.84;5031751;28;20606;-44
2023/11/01 09:31:59;;;;;;;12.50;2.40;;;;;;;18.41;67.75;99921.78;5031043;28;20056;-47
2023/11/01 09:34:24;;;;;;;7.03;1.95;;;;;;;18.42;67.35;99915.59;5031784;28;20036;-45
2023/11/01 09:36:49;;;;;;;7.60;1.85;;;;;;;18.43;67.69;99918.16;5033670;28;20037;-46
2023/11/01 09:39:15;;;;;;;10.48;2.10;;;;;;;18.44;66.81;99911.13;5033880;28;20040;-47
2023/11/01 09:42:14;;;;;;;11.65;2.08;;;;;;;18.47;66.48;99903.97;5034256;28;20029;-46
2023/11/01 09:44:40;;;;;;;7.47;1.80;;;;;;;18.33;67.27;99903.56;5034001;28;20049;-44
2023/11/01 09:47:05;;;;;;;9.23;1.90;;;;;;;18.43;66.74;99904.09;5031158;28;20040;-44
2023/11/01 09:49:31;;;;;;;10.98;1.85;;;;;;;18.33;66.70;99900.06;5030603;28;20025;-49
2023/11/01 09:52:00;;;;;;;11.73;2.10;;;;;;;18.66;66.09;99906.88;5030190;28;20611;-45
2023/11/01 09:54:25;;;;;;;9.90;2.10;;;;;;;18.23;65.68;99902.16;5031168;28;20029;-48
2023/11/01 09:56:54;;;;;;;8.00;1.80;;;;;;;18.23;65.92;99912.72;5030712;28;20053;-45
2023/11/01 09:59:20;;;;;;;10.43;2.17;;;;;;;18.12;67.18;99906.91;5031400;28;20040;-49
2023/11/01 10:01:45;;;;;;;8.55;1.92;;;;;;;18.25;65.91;99909.09;5030628;28;20033;-44
2023/11/01 10:04:10;;;;;;;10.95;1.88;;;;;;;18.17;66.41;99910.28;5030966;28;20045;-44
2023/11/01 10:06:36;;;;;;;8.75;2.10;;;;;;;18.09;65.74;99907.88;5031369;28;20416;-47
2023/11/01 10:09:02;;;;;;;7.25;2.00;;;;;;;18.14;66.42;99905.09;5030307;28;20430;-46
2023/11/01 10:11:28;;;;;;;6.40;1.63;;;;;;;18.20;65.94;99900.47;5030545;28;20055;-48
2023/11/01 10:13:54;;;;;;;10.27;1.90;;;;;;;17.68;67.16;99909.22;5029748;28;20037;-45
2023/11/01 10:16:20;;;;;;;8.07;1.80;;;;;;;18.20;66.31;99899.63;5029832;28;20068;-46
2023/11/01 10:18:47;;;;;;;7.57;1.55;;;;;;;18.05;66.11;99894.84;5029480;28;20033;-47
2023/11/01 10:21:12;;;;;;;7.38;1.90;;;;;;;17.88;67.16;99898.00;5029995;28;20049;-45
2023/11/01 10:23:38;;;;;;;8.98;2.00;;;;;;;17.96;67.20;99887.22;5029709;28;20559;-49
2023/11/01 10:26:04;;;;;;;10.98;2.08;;;;;;;18.28;65.85;99887.03;5029392;28;20065;-49
2023/11/01 10:28:34;;;;;;;10.38;1.75;;;;;;;18.52;65.28;99890.63;5029723;28;20045;-46
2023/11/01 10:31:00;;;;;;;10.18;1.95;;;;;;;18.63;65.38;99889.34;5029254;28;20033;-48
2023/11/01 10:33:25;;;;;;;8.13;2.00;;;;;;;18.80;64.68;99880.81;5029817;28;20049;-52
2023/11/01 10:35:59;;;;;;;8.07;1.83;;;;;;;18.72;64.50;99876.75;5029310;28;20044;-48
2023/11/01 10:38:26;;;;;;;7.38;1.70;;;;;;;18.86;63.22;99870.03;5029642;28;20575;-45
2023/11/01 10:40:51;;;;;;;7.63;2.00;;;;;;;18.74;63.92;99865.19;5029236;28;20109;-48
2023/11/01 10:43:18;;;;;;;8.38;1.85;;;;;;;19.05;62.88;99857.88;5029776;28;20163;-51
2023/11/01 10:45:48;;;;;;;8.90;1.88;;;;;;;19.00;62.85;99866.91;5029499;28;20045;-46
2023/11/01 10:48:14;;;;;;;6.72;1.73;;;;;;;19.07;62.76;99868.41;5029292;28;20040;-50
2023/11/01 10:50:43;;;;;;;8.32;1.75;;;;;;;19.12;62.11;99853.25;5029565;28;20041;-48
2023/11/01 10:53:11;;;;;;;9.02;2.28;;;;;;;19.05;61.94;99842.03;5029153;28;20446;-45
2023/11/01 10:55:37;;;;;;;8.38;1.85;;;;;;;18.95;62.55;99840.66;5029344;28;20037;-45
2023/11/01 10:58:05;;;;;;;5.50;1.63;;;;;;;18.75;62.89;99837.88;5029122;28;20045;-48
2023/11/01 11:00:44;;;;;;;9.88;2.05;;;;;;;18.46;63.46;99835.41;5029539;28;20491;-47
2023/11/01 11:03:41;;;;;;;8.02;1.90;;;;;;;18.75;63.26;99832.59;5029102;28;20044;-46
2023/11/01 11:06:15;;;;;;;7.50;1.80;;;;;;;19.09;62.59;99826.09;5029201;28;20061;-48
2023/11/01 11:08:40;;;;;;;7.70;1.70;;;;;;;19.11;62.04;99811.00;5029229;28;20041;-42
2023/11/01 11:11:17;;;;;;;5.78;1.65;;;;;;;18.49;63.73;99820.31;5029115;28;20030;-44
2023/11/01 11:13:42;;;;;;;6.65;2.10;;;;;;;18.33;64.18;99810.34;5029434;28;20037;-49
2023/11/01 11:16:10;;;;;;;8.18;1.65;;;;;;;18.41;64.69;99810.97;5028730;28;20095;-44
2023/11/01 11:18:41;;;;;;;8.45;1.90;;;;;;;18.69;63.85;99797.66;5028089;28;20040;-48